7NK4 weather

Ridge Road West Airport
Spenceport, New York, United States

Public forecast

Using degrees Fahrenheit for public forecast. Weather courtesy of forecast.io.

METAR (pilot weather report)

Closest report is Greater Rochester International Airport, 8.7 nm (16.1 km) SE. Retrieved 2019/05/20 06:54 UTC (1 hour ago):

KROC 200654Z 22008KT 10SM BKN038 OVC045 19/15 A2972 RMK AO2 SLP064 T01940150

TAF (pilot weather forecast)

Closest forecast is Greater Rochester International Airport, 8.7 nm (16.1 km) SE. Retrieved 2019/05/20 06:33 UTC (2 hours ago):

TAF KROC 200531Z 2006/2106 21009KT P6SM OVC070 FM201100 24011G17KT P6SM VCSH BKN050 FM201500 25017G25KT P6SM VCSH BKN040 FM201800 25021G38KT P6SM BKN040 FM202300 27019G29KT P6SM BKN030